F/V Billabong — FHGI — position and weather

sailwx.info

Track history (hours):
 
Tides and Currents Weather Stations Pressure Air Temp Water Temp Dewpoint Dewpoint Depression Visibility Wind Speed Wind Dir Waves Ship Positions

F/V Billabong

Last reported at 2018-Feb-19 04:45 UTC. Time now 2018-Feb-20 12:06 UTC.
Position N 47°19' W 003°39'.

Length 16 m.

Type: Fishing. MMSI: 228380000.

Date/timePositionNaut miles runAvg speedWind from/ knotsBaromVisibWave heightAir tempDewpointWater temp
2018-Feb-19 04:45N 47°19' W 003°39'3 7.9
2018-Feb-19 04:24N 47°22' W 003°37'3 8.1
2018-Feb-19 04:00N 47°24' W 003°34'4 7.9
2018-Feb-19 03:30N 47°27' W 003°30'4 7.8
2018-Feb-19 03:00N 47°30' W 003°27'4 8.1
2018-Feb-19 02:30N 47°34' W 003°24'4 8.0
2018-Feb-19 02:00N 47°38' W 003°23'4 8.0
2018-Feb-19 01:30N 47°42' W 003°22'2 3.9
2018-Feb-19 01:00N 47°44' W 003°22'0 0.0
2018-Feb-17 02:49N 47°44' W 003°22'0 0.0
2018-Feb-17 02:31N 47°44' W 003°22'0 0.3
2018-Feb-17 02:00N 47°44' W 003°22'3 5.4
2018-Feb-17 01:30N 47°41' W 003°22'4 7.9
2018-Feb-17 01:00N 47°37' W 003°23'4 7.8
2018-Feb-17 00:30N 47°33' W 003°24'4 8.1
2018-Feb-17 00:00N 47°29' W 003°25'4 8.3
2018-Feb-16 23:30N 47°25' W 003°26'4 8.4
2018-Feb-16 23:00N 47°21' W 003°26'3 5.9
2018-Feb-16 22:30N 47°18' W 003°26'2 3.9
2018-Feb-16 22:00N 47°18' W 003°23'2 3.9
2018-Feb-16 21:30N 47°17' W 003°21'8 0.5
2018-Feb-16 06:26N 47°15' W 003°33'4 9.2
2018-Feb-16 06:00N 47°19' W 003°31'5 9.1
2018-Feb-16 05:31N 47°23' W 003°29'4 8.8
2018-Feb-16 05:01N 47°27' W 003°27'4 8.8
2018-Feb-16 04:30N 47°31' W 003°25'5 9.1
2018-Feb-16 04:00N 47°36' W 003°23'5 9.3
2018-Feb-16 03:31N 47°40' W 003°22'3 6.4
2018-Feb-16 02:59N 47°44' W 003°22'0 0.0
2018-Feb-16 02:31N 47°44' W 003°22'0 0.6
2018-Feb-16 02:00N 47°44' W 003°22'5 9.3
2018-Feb-16 01:31N 47°39' W 003°23'5 9.1
2018-Feb-16 01:01N 47°34' W 003°22'5 9.2
2018-Feb-16 00:31N 47°30' W 003°21'5 9.4
2018-Feb-16 00:00N 47°25' W 003°20'15 0.3
2018-Feb-14 02:45N 47°20' W 003°40'2 7.9
2018-Feb-14 02:30N 47°21' W 003°38'4 7.6
2018-Feb-14 02:00N 47°24' W 003°35'4 7.7
2018-Feb-14 01:30N 47°27' W 003°31'4 7.8
2018-Feb-14 01:00N 47°31' W 003°28'4 7.9
2018-Feb-14 00:30N 47°34' W 003°25'4 7.8
2018-Feb-14 00:00N 47°37' W 003°23'4 7.8
2018-Feb-13 23:30N 47°41' W 003°22'2 4.9
2018-Feb-13 23:00N 47°44' W 003°22'0 0.0
2018-Feb-13 03:00N 47°44' W 003°22'0 0.0
2018-Feb-13 02:30N 47°44' W 003°22'2 4.4
2018-Feb-13 02:00N 47°42' W 003°22'4 8.5
2018-Feb-13 01:30N 47°37' W 003°22'4 8.3
2018-Feb-13 01:00N 47°33' W 003°21'4 8.2
2018-Feb-13 00:31N 47°29' W 003°20'4 8.4
2018-Feb-13 00:01N 47°25' W 003°19'4 8.5
2018-Feb-12 23:30N 47°21' W 003°19'4 8.1
2018-Feb-12 23:01N 47°17' W 003°19'6 0.3
2018-Feb-12 04:32N 47°18' W 003°28'0 8.2
2018-Feb-12 04:30N 47°18' W 003°28'4 8.0
2018-Feb-12 04:01N 47°22' W 003°26'4 8.2
2018-Feb-12 03:30N 47°26' W 003°25'4 8.2
2018-Feb-12 03:00N 47°30' W 003°24'4 8.3
2018-Feb-12 02:30N 47°34' W 003°23'4 8.4
2018-Feb-12 02:01N 47°39' W 003°23'4 7.7
2018-Feb-12 01:30N 47°42' W 003°22'1 2.8
2018-Feb-12 01:01N 47°44' W 003°22'0 0.0
2018-Feb-10 04:20N 47°44' W 003°22'0 0.6
2018-Feb-10 04:00N 47°44' W 003°22'0 0.0
2018-Feb-10 03:29N 47°44' W 003°22'0 0.0
2018-Feb-10 03:00N 47°44' W 003°22'3 5.4
2018-Feb-10 02:30N 47°41' W 003°22'4 8.8
2018-Feb-10 02:00N 47°37' W 003°22'4 8.5
2018-Feb-10 01:30N 47°33' W 003°25'4 8.8
2018-Feb-10 01:00N 47°29' W 003°27'4 8.8
2018-Feb-10 00:30N 47°25' W 003°29'4 8.6
2018-Feb-10 00:00N 47°20' W 003°31'  
Track history (hours):
 
Tides and Currents Weather Stations Pressure Air Temp Water Temp Dewpoint Dewpoint Depression Visibility Wind Speed Wind Dir Waves Ship Positions

F/V Billabong

Last reported at 2018-Feb-19 04:45 UTC. Time now 2018-Feb-20 12:06 UTC.
Position N 47°19' W 003°39'.

Length 16 m.

Type: Fishing. MMSI: 228380000.

Date/timePositionNaut miles runAvg speedWind from/ knotsBaromVisibWave heightAir tempDewpointWater temp
2018-Feb-19 04:45N 47°19' W 003°39'3 7.9
2018-Feb-19 04:24N 47°22' W 003°37'3 8.1
2018-Feb-19 04:00N 47°24' W 003°34'4 7.9
2018-Feb-19 03:30N 47°27' W 003°30'4 7.8
2018-Feb-19 03:00N 47°30' W 003°27'4 8.1
2018-Feb-19 02:30N 47°34' W 003°24'4 8.0
2018-Feb-19 02:00N 47°38' W 003°23'4 8.0
2018-Feb-19 01:30N 47°42' W 003°22'2 3.9
2018-Feb-19 01:00N 47°44' W 003°22'0 0.0
2018-Feb-17 02:49N 47°44' W 003°22'0 0.0
2018-Feb-17 02:31N 47°44' W 003°22'0 0.3
2018-Feb-17 02:00N 47°44' W 003°22'3 5.4
2018-Feb-17 01:30N 47°41' W 003°22'4 7.9
2018-Feb-17 01:00N 47°37' W 003°23'4 7.8
2018-Feb-17 00:30N 47°33' W 003°24'4 8.1
2018-Feb-17 00:00N 47°29' W 003°25'4 8.3
2018-Feb-16 23:30N 47°25' W 003°26'4 8.4
2018-Feb-16 23:00N 47°21' W 003°26'3 5.9
2018-Feb-16 22:30N 47°18' W 003°26'2 3.9
2018-Feb-16 22:00N 47°18' W 003°23'2 3.9
2018-Feb-16 21:30N 47°17' W 003°21'8 0.5
2018-Feb-16 06:26N 47°15' W 003°33'4 9.2
2018-Feb-16 06:00N 47°19' W 003°31'5 9.1
2018-Feb-16 05:31N 47°23' W 003°29'4 8.8
2018-Feb-16 05:01N 47°27' W 003°27'4 8.8
2018-Feb-16 04:30N 47°31' W 003°25'5 9.1
2018-Feb-16 04:00N 47°36' W 003°23'5 9.3
2018-Feb-16 03:31N 47°40' W 003°22'3 6.4
2018-Feb-16 02:59N 47°44' W 003°22'0 0.0
2018-Feb-16 02:31N 47°44' W 003°22'0 0.6
2018-Feb-16 02:00N 47°44' W 003°22'5 9.3
2018-Feb-16 01:31N 47°39' W 003°23'5 9.1
2018-Feb-16 01:01N 47°34' W 003°22'5 9.2
2018-Feb-16 00:31N 47°30' W 003°21'5 9.4
2018-Feb-16 00:00N 47°25' W 003°20'15 0.3
2018-Feb-14 02:45N 47°20' W 003°40'2 7.9
2018-Feb-14 02:30N 47°21' W 003°38'4 7.6
2018-Feb-14 02:00N 47°24' W 003°35'4 7.7
2018-Feb-14 01:30N 47°27' W 003°31'4 7.8
2018-Feb-14 01:00N 47°31' W 003°28'4 7.9
2018-Feb-14 00:30N 47°34' W 003°25'4 7.8
2018-Feb-14 00:00N 47°37' W 003°23'4 7.8
2018-Feb-13 23:30N 47°41' W 003°22'2 4.9
2018-Feb-13 23:00N 47°44' W 003°22'0 0.0
2018-Feb-13 03:00N 47°44' W 003°22'0 0.0
2018-Feb-13 02:30N 47°44' W 003°22'2 4.4
2018-Feb-13 02:00N 47°42' W 003°22'4 8.5
2018-Feb-13 01:30N 47°37' W 003°22'4 8.3
2018-Feb-13 01:00N 47°33' W 003°21'4 8.2
2018-Feb-13 00:31N 47°29' W 003°20'4 8.4
2018-Feb-13 00:01N 47°25' W 003°19'4 8.5
2018-Feb-12 23:30N 47°21' W 003°19'4 8.1
2018-Feb-12 23:01N 47°17' W 003°19'6 0.3
2018-Feb-12 04:32N 47°18' W 003°28'0 8.2
2018-Feb-12 04:30N 47°18' W 003°28'4 8.0
2018-Feb-12 04:01N 47°22' W 003°26'4 8.2
2018-Feb-12 03:30N 47°26' W 003°25'4 8.2
2018-Feb-12 03:00N 47°30' W 003°24'4 8.3
2018-Feb-12 02:30N 47°34' W 003°23'4 8.4
2018-Feb-12 02:01N 47°39' W 003°23'4 7.7
2018-Feb-12 01:30N 47°42' W 003°22'1 2.8
2018-Feb-12 01:01N 47°44' W 003°22'0 0.0
2018-Feb-10 04:20N 47°44' W 003°22'0 0.6
2018-Feb-10 04:00N 47°44' W 003°22'0 0.0
2018-Feb-10 03:29N 47°44' W 003°22'0 0.0
2018-Feb-10 03:00N 47°44' W 003°22'3 5.4
2018-Feb-10 02:30N 47°41' W 003°22'4 8.8
2018-Feb-10 02:00N 47°37' W 003°22'4 8.5
2018-Feb-10 01:30N 47°33' W 003°25'4 8.8
2018-Feb-10 01:00N 47°29' W 003°27'4 8.8
2018-Feb-10 00:30N 47°25' W 003°29'4 8.6
2018-Feb-10 00:00N 47°20' W 003°31'  

Dump ship's entire track history